Tiempo atmosférico en la estación meteorológica de Muniesa, Teruel (800 m.)



Fecha
DESCASC
Temp. máxima en grados centígrados (hora)
DESCASC
Temp. mínima en grados centígrados (hora)
DESCASC
Temp. media en grados centígrados
DESCASC
Racha de viento máxima en m/sg (hora)
DESCASC
Velocidad máxima media en intervalos de 10 minutos(hora)
DESCASC
Precipitaciones diarias en mm
DESCASC
Precipitaciones de 00:00 a 06:00 en mm
DESCASC
Precipitaciones de 06:00 a 12:00 en mm
DESCASC
Precipitaciones de 12:00 a 18:00 en mm
DESCASC
Precipitaciones de 18:00 a 24:00 en mm
DESCASC
24-01-2021 11 (00:00) 4.1 (07:50) 7.5 19.44 (02:50) 12.78 (06:20) 1.2 0.2 1 0 0
23-01-2021 11.1 (23:40) 4.4 (02:00) 7.8 23.89 (19:00) 15.56 (19:20) 0 0 0 0 0
22-01-2021 12.1 (04:20) 4.3 (19:40) 8.2 27.5 (08:00) 13.89 (12:00) 3.6 0 3.6 0 0
21-01-2021 11.9 (14:40) 6.7 (00:00) 9.3 20 (15:20) 11.94 (14:20) 0 0 0 0 0
20-01-2021 9.2 (16:30) 2.4 (00:00) 5.8 11.67 (16:40) 7.5 (16:40) 0 0 0 0 0
19-01-2021 14.6 (15:40) 1.2 (00:00) 7.9 5 (22:10) 3.33 (22:10) 0 0 0 0 0
18-01-2021 11.4 (16:20) 1.6 (00:00) 6.5 7.22 (11:50) 4.44 (00:40) 0 0 0 0 0
17-01-2021 11.1 (12:40) 1.7 (00:00) 6.4 10.56 (15:20) 6.39 (16:20) 0 0 0 0 0
16-01-2021 9.3 (16:30) 1.5 (00:00) 5.4 14.72 (00:10) 8.33 (00:10) 0 0 0 0 0
15-01-2021 5.2 (16:20) 2.9 (00:00) 4 16.39 (18:40) 9.17 (23:10) 0 0 0 0 0
14-01-2021 6.8 (16:00) -5.4 (05:00) 0.7 10.83 (17:20) 6.39 (17:20) 0 0 0 0 0
13-01-2021 5.9 (16:10) -2.9 (-00:0) 1.5 8.61 (02:10) 5 (06:20) 0 0 0 0 0
12-01-2021 3.4 (14:10) -6.9 (-00:0) -1.8 11.11 (20:50) 6.11 (20:50) -- -- -- -- --
11-01-2021 0.5 (15:20) -4 (-00:0) -1.8 10.28 (11:10) 6.11 (12:50) -- -- -- -- --
10-01-2021 0.4 (12:40) -2.4 (00:00) -1 8.33 (23:10) 5 (23:10) -- -- -- -- --
09-01-2021 -1.2 (13:40) -3.8 (-00:0) -2.5 3.89 (18:30) 1.94 (15:10) -- -- -- -- --
08-01-2021 -0.5 (12:50) -6.5 (-00:0) -3.5 3.61 (13:10) 1.94 (03:10) -- 0 0 -- --
07-01-2021 -0.2 (14:20) -3.3 (-00:0) -1.7 4.44 (14:00) 2.78 (14:50) 0 0 0 0 0
06-01-2021 4.9 (15:30) -5.2 (-00:0) -0.1 5 (15:00) 2.78 (15:00) 0 0 0 0 0
05-01-2021 4.1 (14:50) -3.2 (-00:0) 0.4 8.61 (13:30) 5 (13:30) 0 0 0 0 0
04-01-2021 4.1 (15:20) -1.6 (-00:0) 1.2 13.33 (13:00) 8.33 (12:40) 0 0 0 0 0
03-01-2021 4.4 (14:10) -2.7 (-00:0) 0.9 13.89 (01:40) 8.33 (15:30) 0 0 0 0 0
02-01-2021 2.1 (14:00) -1.7 (-00:0) 0.2 16.67 (14:20) 10.83 (13:50) 0 0 0 0 0
01-01-2021 5.5 (13:50) -1.4 (-00:0) 2.1 12.22 (12:20) 7.5 (11:20) 0 0 0 0 0
31-12-2020 8.6 (14:00) 1.2 (00:00) 4.9 14.72 (12:20) 9.72 (12:40) 0 0 0 0 0
30-12-2020 6.5 (15:20) -0.2 (00:00) 3.1 13.33 (12:00) 7.22 (03:10) 0 0 0 0 0
29-12-2020 6.5 (15:20) 1.8 (00:00) 4.1 18.61 (01:20) 11.39 (02:20) 0 0 0 0 0
28-12-2020 7.7 (15:00) 2.5 (00:00) 5.1 20 (04:20) 13.06 (04:20) 2.4 2.2 0.2 0 0
27-12-2020 11.9 (13:10) -3 (-00:0) 4.4 18.61 (15:30) 11.94 (15:30) 0 0 0 0 0
26-12-2020 4.7 (14:20) -1 (-00:0) 1.8 15.56 (11:40) 9.17 (13:20) 0 0 0 0 0

Gráficas

Temp. máximas Temp. mínimas Temp. medias Precipitaciones Rachas de viento máximas Velocidades máximas media en intervalos de 10 minutos

Datos horarios

Fecha y hora oficial Temperatura (ºC) Velocidad del viento (km/h) Dirección del viento Racha (km/h) Dirección de racha Precipitación (mm) Presión (hPa) Tendencia (hPa) Humedad (%)
2021-01-24 23:00:00 7.9 10 Oeste 39 Sudoeste 0 -- -- 61
2021-01-24 22:00:00 7.8 19 Oeste 35 Oeste 0 -- -- 63
2021-01-24 21:00:00 7.5 14 Oeste 39 Oeste 0 -- -- 63
2021-01-24 20:00:00 7.2 13 Oeste 29 Oeste 0 -- -- 64
2021-01-24 19:00:00 7.9 19 Oeste 33 Oeste 0 -- -- 60
2021-01-24 18:00:00 8.7 5 Oeste 25 Oeste 0 -- -- 60
2021-01-24 17:00:00 9.9 14 Oeste 28 Oeste 0 -- -- 55
2021-01-24 16:00:00 10.4 19 Oeste 42 Oeste 0 -- -- 53
2021-01-24 15:00:00 11 24 Oeste 45 Oeste 0 -- -- 55
2021-01-24 14:00:00 10.2 27 Oeste 50 Oeste 0 -- -- 56
2021-01-24 13:00:00 9.1 24 Oeste 42 Oeste 0 -- -- 64
2021-01-24 12:00:00 8.1 23 Oeste 41 Oeste 0 -- -- 72
2021-01-24 11:00:00 6.6 15 Noroeste 29 Noroeste 0 -- -- 84
2021-01-24 10:00:00 5 5 Oeste 36 Noroeste 0 -- -- 88
2021-01-24 09:00:00 4.7 24 Oeste 54 Noroeste 0.6 -- -- 88
2021-01-24 08:00:00 4.1 32 Noroeste 60 Oeste 0.4 -- -- 91
2021-01-24 07:00:00 8.6 32 Oeste 70 Oeste 0 -- -- 63
2021-01-24 06:00:00 8.4 32 Oeste 60 Oeste 0 -- -- 64
2021-01-24 05:00:00 8.6 32 Oeste 67 Oeste 0 -- -- 65
2021-01-24 04:00:00 8.9 36 Oeste 63 Oeste 0 -- -- 64
2021-01-24 03:00:00 9.9 41 Oeste 70 Oeste 0.2 -- -- 61
2021-01-24 02:00:00 9.8 36 Oeste 63 Oeste 0 -- -- 63
2021-01-24 01:00:00 10.2 25 Oeste 62 Sudoeste 0 -- -- 80
2021-01-24 00:00:00 11 38 Sudoeste 70 Oeste 0 -- -- 73
2021-01-23 23:00:00 10.3 32 Sudoeste 66 Oeste 0 -- -- 70
2021-01-23 22:00:00 10 33 Sudoeste 79 Sudoeste 0 -- -- 66
2021-01-23 21:00:00 9.7 47 Sudoeste 75 Sudoeste 0 -- -- 64
2021-01-23 20:00:00 9.6 48 Sudoeste 84 Sudoeste 0 -- -- 63
2021-01-23 19:00:00 9.1 54 Sudoeste 86 Sudoeste 0 -- -- 64
2021-01-23 18:00:00 8.7 47 Sudoeste 75 Sudoeste 0 -- -- 66
2021-01-23 17:00:00 8.1 34 Sudoeste 71 Sudoeste 0 -- -- 67
2021-01-23 16:00:00 9.2 28 Sudoeste 69 Sudoeste 0 -- -- 60
2021-01-23 15:00:00 7.9 16 Sudoeste 31 Sudoeste 0 -- -- 64
2021-01-23 14:00:00 7.4 13 Sudoeste 40 Sudoeste 0 -- -- 64
2021-01-23 13:00:00 7.7 23 Sudoeste 51 Oeste 0 -- -- 61
2021-01-23 12:00:00 7.8 23 Sudoeste 44 Sudoeste 0 -- -- 61
2021-01-23 11:00:00 6.2 17 Sudoeste 31 Sudoeste 0 -- -- 64
2021-01-23 10:00:00 6.2 13 Sudoeste 38 Sur 0 -- -- 64
2021-01-23 09:00:00 5.1 12 Sudoeste 37 Sudoeste 0 -- -- 64
2021-01-23 08:00:00 4.7 18 Sudoeste 58 Sudoeste 0 -- -- 66
2021-01-23 07:00:00 5.3 27 Sudoeste 45 Sudoeste 0 -- -- 64
2021-01-23 06:00:00 5.1 20 Oeste 39 Sudoeste 0 -- -- 65
2021-01-23 05:00:00 4.9 21 Sudoeste 49 Sudoeste 0 -- -- 66
2021-01-23 04:00:00 4.6 25 Sudoeste 45 Sudoeste 0 -- -- 69
2021-01-23 03:00:00 4.5 22 Sudoeste 37 Oeste 0 -- -- 71
2021-01-23 02:00:00 4.4 13 Oeste 40 Oeste 0 -- -- 71
2021-01-23 01:00:00 4.9 27 Oeste 48 Oeste 0 -- -- 68
2021-01-23 00:00:00 5.1 29 Oeste 54 Oeste 0 -- -- 67
2021-01-22 23:00:00 5.3 25 Oeste 51 Oeste 0 -- -- 68
2021-01-22 22:00:00 6.1 27 Oeste 54 Oeste 0 -- -- 64
2021-01-22 21:00:00 5.7 23 Oeste 42 Oeste 0 -- -- 72
2021-01-22 20:00:00 4.7 13 Noroeste 32 Oeste 0 -- -- 79
2021-01-22 19:00:00 4.5 11 Oeste 59 Noroeste 0 -- -- 81
2021-01-22 18:00:00 7.5 23 Oeste 48 Oeste 0 -- -- 62
2021-01-22 17:00:00 8.5 27 Oeste 50 Oeste 0 -- -- 56
2021-01-22 16:00:00 9.4 31 Oeste 66 Oeste 0 -- -- 55
2021-01-22 15:00:00 8.7 38 Oeste 60 Oeste 0 -- -- 63
2021-01-22 14:00:00 7 38 Oeste 72 Oeste 0 -- -- 76
2021-01-22 13:00:00 8.2 41 Oeste 71 Oeste 0 -- -- 67
2021-01-22 12:00:00 8.2 50 Oeste 72 Sudoeste 0 -- -- 63
2021-01-22 11:00:00 7.7 33 Oeste 63 Sudoeste 0 -- -- 64
2021-01-22 10:00:00 6.7 38 Oeste 63 Sudoeste 0 -- -- 70
2021-01-22 09:00:00 5.9 40 Oeste 66 Oeste 3 -- -- 77
2021-01-22 08:00:00 5.6 50 Oeste 99 Oeste 0.6 -- -- 82
2021-01-22 07:00:00 11 18 Oeste 40 Sudoeste 0 -- -- 68
2021-01-22 06:00:00 11.3 30 Sudoeste 66 Sudoeste 0 -- -- 65
2021-01-22 05:00:00 12 34 Sudoeste 60 Sudoeste 0 -- -- 63
2021-01-22 04:00:00 12 27 Sudoeste 49 Oeste 0 -- -- 64
2021-01-22 03:00:00 10.5 11 Sur 27 Sur 0 -- -- 69
2021-01-22 02:00:00 10.2 5 Sur 21 Sur 0 -- -- 70
2021-01-22 01:00:00 10.6 8 Sudeste 22 Sudeste 0 -- -- 68
2021-01-22 00:00:00 11.5 5 Sudeste 32 Sudoeste 0 -- -- 65
2021-01-21 23:00:00 10.6 3 Sudoeste 22 Sudoeste 0 -- -- 68
2021-01-21 22:00:00 10.7 9 Sudoeste 27 Sudoeste 0 -- -- 68
2021-01-21 21:00:00 10.5 10 Sudoeste 33 Sudoeste 0 -- -- 68
2021-01-21 20:00:00 10.2 12 Sudoeste 37 Sudoeste 0 -- -- 69
2021-01-21 19:00:00 10.4 23 Sudoeste 42 Sudoeste 0 -- -- 66
2021-01-21 18:00:00 10.1 19 Sudoeste 49 Sudoeste 0 -- -- 67
2021-01-21 17:00:00 10.3 22 Sudoeste 46 Oeste 0 -- -- 65
2021-01-21 16:00:00 10.9 33 Sudoeste 72 Sudoeste 0 -- -- 61
2021-01-21 15:00:00 11.7 36 Sudoeste 67 Sudoeste 0 -- -- 60
2021-01-21 14:00:00 11.2 33 Sudoeste 61 Sudoeste 0 -- -- 61
2021-01-21 13:00:00 10.9 28 Sudoeste 54 Sudoeste 0 -- -- 63
2021-01-21 12:00:00 10.7 23 Sudoeste 38 Sudoeste 0 -- -- 65
2021-01-21 11:00:00 9.6 23 Sudoeste 47 Sudoeste 0 -- -- 68
2021-01-21 10:00:00 8.6 28 Sudoeste 46 Sudoeste 0 -- -- 72
2021-01-21 09:00:00 7.2 14 Sudoeste 24 Sudoeste 0 -- -- 78
2021-01-21 08:00:00 7 17 Sudoeste 35 Oeste 0 -- -- 78
2021-01-21 07:00:00 7.3 20 Sudoeste 36 Sudoeste 0 -- -- 77
2021-01-21 06:00:00 7.3 25 Sudoeste 44 Sudoeste 0 -- -- 77
2021-01-21 05:00:00 7 15 Sudoeste 36 Sudoeste 0 -- -- 80
2021-01-21 04:00:00 7.2 21 Oeste 35 Sudoeste 0 -- -- 78
2021-01-21 03:00:00 7.8 15 Sudoeste 33 Sudoeste 0 -- -- 75
2021-01-21 02:00:00 8.3 19 Oeste 40 Sudoeste 0 -- -- 73
2021-01-21 01:00:00 7.1 15 Sudoeste 26 Sudoeste 0 -- -- 77
2021-01-21 00:00:00 7.2 7 Sur 17 Sudoeste 0 -- -- 75
2021-01-20 23:00:00 6.2 5 Sudeste 14 Sudeste 0 -- -- 79
2021-01-20 22:00:00 6.4 4 Sudeste 19 Sudeste 0 -- -- 76
2021-01-20 21:00:00 5.6 3 Sudeste 12 Sudeste 0 -- -- 81
2021-01-20 20:00:00 6.2 5 Sur 18 Sur 0 -- -- 77
2021-01-20 19:00:00 6 2 Nordeste 14 Sudeste 0 -- -- 76
2021-01-20 18:00:00 7.4 5 Sudeste 28 Sudoeste 0 -- -- 71
2021-01-20 17:00:00 8.7 15 Sudoeste 42 Sudoeste 0 -- -- 68
2021-01-20 16:00:00 8.2 17 Sudoeste 33 Sur 0 -- -- 69
2021-01-20 15:00:00 8.1 15 Sur 32 Sur 0 -- -- 69
2021-01-20 14:00:00 8.7 10 Sur 39 Sur 0 -- -- 64
2021-01-20 13:00:00 8 15 Sur 29 Sur 0 -- -- 65
2021-01-20 12:00:00 7.1 17 Sur 26 Sudoeste 0 -- -- 66
2021-01-20 11:00:00 5.8 8 Sudeste 17 Este 0 -- -- 68
2021-01-20 10:00:00 5.9 11 Sur 20 Sudoeste 0 -- -- 62
2021-01-20 09:00:00 4.6 9 Sudoeste 14 Sudoeste 0 -- -- 65
2021-01-20 08:00:00 3 6 Sur 9 Sur 0 -- -- 67
2021-01-20 07:00:00 3.4 4 Sur 11 Sur 0 -- -- 64
2021-01-20 06:00:00 5.4 4 Sudeste 23 Sudeste 0 -- -- 56
2021-01-20 05:00:00 6.3 12 Sudeste 18 Sudeste 0 -- -- 55
2021-01-20 04:00:00 5.1 4 Sur 13 Sudeste 0 -- -- 61
2021-01-20 03:00:00 5.8 2 Sur 24 Sudeste 0 -- -- 58
2021-01-20 02:00:00 6.8 13 Sudeste 25 Sur 0 -- -- 53
2021-01-20 01:00:00 2.4 4 Sur 12 Sur 0 -- -- 72
2021-01-20 00:00:00 4.1 2 Sur 15 Sudoeste 0 -- -- 64
2021-01-19 23:00:00 4.9 8 Sudeste 18 Sur 0 -- -- 63
2021-01-19 22:00:00 4.8 8 Sur 16 Sudeste 0 -- -- 62
2021-01-19 21:00:00 3.9 0 Calma 13 Sur 0 -- -- 64
2021-01-19 20:00:00 4.2 5 Sur 12 Sur 0 -- -- 65
2021-01-19 19:00:00 5.4 5 Sur 7 Sur 0 -- -- 72
2021-01-19 18:00:00 9.5 2 Oeste 13 Norte 0 -- -- 64
2021-01-19 17:00:00 13.6 5 Sudeste 16 Sudoeste 0 -- -- 47
2021-01-19 16:00:00 14.5 9 Sudoeste 16 Sudoeste 0 -- -- 29
2021-01-19 15:00:00 13.7 3 Norte 7 Nordeste 0 -- -- 41
2021-01-19 14:00:00 13.1 3 Nordeste 9 Norte 0 -- -- 45
2021-01-19 13:00:00 11.5 6 Norte 10 Este 0 -- -- 51
2021-01-19 12:00:00 11 8 Este 11 Este 0 -- -- 58
2021-01-19 11:00:00 8.8 3 Sur 10 Sudoeste 0 -- -- 54
2021-01-19 10:00:00 5.9 4 Sur 8 Sur 0 -- -- 62
2021-01-19 09:00:00 2.5 6 Sur 9 Sur 0 -- -- 72
2021-01-19 08:00:00 1.9 5 Sur 13 Sur 0 -- -- 76
2021-01-19 07:00:00 2.7 11 Sur 14 Sur 0 -- -- 75
2021-01-19 06:00:00 2 8 Sur 10 Sur 0 -- -- 79
2021-01-19 05:00:00 1.6 3 Sur 12 Sur 0 -- -- 82
2021-01-19 04:00:00 1.9 9 Sur 13 Sur 0 -- -- 82
2021-01-19 03:00:00 2.2 6 Sur 13 Sur 0 -- -- 83
2021-01-19 02:00:00 2.1 7 Sur 14 Sur 0 -- -- 85
2021-01-19 01:00:00 2.2 10 Sur 13 Sur 0 -- -- 84
2021-01-19 00:00:00 1.8 9 Sur 11 Sur 0 -- -- 84
2021-01-18 23:00:00 1.9 6 Sur 11 Sur 0 -- -- 84
2021-01-18 22:00:00 2.3 9 Sur 13 Sur 0 -- -- 82
2021-01-18 21:00:00 2.8 9 Sur 13 Sur 0 -- -- 78
2021-01-18 20:00:00 2.9 6 Sur 12 Sur 0 -- -- 77
2021-01-18 19:00:00 4.3 7 Sur 10 Sur 0 -- -- 72
2021-01-18 18:00:00 8.5 2 Sudoeste 10 Noroeste 0 -- -- 62
2021-01-18 17:00:00 9.7 7 Noroeste 13 Noroeste 0 -- -- 60
2021-01-18 16:00:00 11.1 3 Sur 12 Sur 0 -- -- 53
2021-01-18 15:00:00 10.9 8 Sudoeste 14 Sur 0 -- -- 54
2021-01-18 14:00:00 10 6 Noroeste 17 Norte 0 -- -- 60
2021-01-18 13:00:00 9.1 10 Noroeste 24 Oeste 0 -- -- 64
2021-01-18 12:00:00 8.2 14 Oeste 26 Oeste 0 -- -- 68
2021-01-18 11:00:00 7.3 14 Oeste 21 Oeste 0 -- -- 72
2021-01-18 10:00:00 5.9 11 Oeste 19 Oeste 0 -- -- 75
2021-01-18 09:00:00 3.4 4 Oeste 13 Oeste 0 -- -- 85
2021-01-18 08:00:00 3.1 6 Oeste 12 Sudoeste 0 -- -- 84
2021-01-18 07:00:00 3.7 7 Oeste 22 Oeste 0 -- -- 81
2021-01-18 06:00:00 4.5 14 Oeste 25 Oeste 0 -- -- 80
2021-01-18 05:00:00 4.9 11 Oeste 21 Oeste 0 -- -- 80
2021-01-18 04:00:00 3.8 4 Sudoeste 13 Oeste 0 -- -- 84
2021-01-18 03:00:00 4.8 6 Oeste 16 Oeste 0 -- -- 82
2021-01-18 02:00:00 5.6 8 Oeste 18 Oeste 0 -- -- 79
2021-01-18 01:00:00 6.6 12 Oeste 24 Oeste 0 -- -- 77
2021-01-18 00:00:00 6.4 8 Oeste 25 Oeste 0 -- -- 78
2021-01-17 23:00:00 6 14 Oeste 21 Oeste 0 -- -- 80
2021-01-17 22:00:00 6.9 10 Oeste 26 Oeste 0 -- -- 81
2021-01-17 21:00:00 7.3 14 Oeste 25 Oeste 0 -- -- 71
2021-01-17 20:00:00 7.3 17 Oeste 31 Oeste 0 -- -- 66
2021-01-17 19:00:00 7.4 14 Oeste 23 Oeste 0 -- -- 59
2021-01-17 18:00:00 7.9 12 Oeste 31 Oeste 0 -- -- 57
2021-01-17 17:00:00 9.3 17 Oeste 34 Oeste 0 -- -- 52
2021-01-17 16:00:00 10.7 21 Oeste 38 Oeste 0 -- -- 48
2021-01-17 15:00:00 11 21 Oeste 34 Oeste 0 -- -- 46
2021-01-17 14:00:00 10.7 22 Oeste 36 Oeste 0 -- -- 49
2021-01-17 13:00:00 10.9 18 Oeste 31 Oeste 0 -- -- 49
2021-01-17 12:00:00 10.6 6 Noroeste 22 Sudoeste 0 -- -- 45
2021-01-17 11:00:00 9.6 8 Sudoeste 20 Oeste 0 -- -- 43
2021-01-17 10:00:00 7.5 6 Oeste 20 Oeste 0 -- -- 45
2021-01-17 09:00:00 4.3 4 Noroeste 11 Nordeste 0 -- -- 54
2021-01-17 08:00:00 6.7 11 Oeste 27 Oeste 0 -- -- 47
2021-01-17 07:00:00 4.6 3 Oeste 14 Oeste 0 -- -- 47
2021-01-17 06:00:00 4 4 Sur 9 Sur 0 -- -- 47
2021-01-17 05:00:00 3.8 4 Sudoeste 13 Oeste 0 -- -- 50
2021-01-17 04:00:00 1.8 5 Sur 11 Sudoeste 0 -- -- 60
2021-01-17 03:00:00 2.7 5 Sur 12 Sudoeste 0 -- -- 56
2021-01-17 02:00:00 3 4 Sudoeste 11 Sur 0 -- -- 54
2021-01-17 01:00:00 3.9 7 Sur 15 Oeste 0 -- -- 52
2021-01-17 00:00:00 5.2 8 Oeste 13 Oeste 0 -- -- 45
2021-01-16 23:00:00 4.1 3 Sudoeste 14 Oeste 0 -- -- 50
2021-01-16 22:00:00 4.7 5 Sudoeste 21 Oeste 0 -- -- 47
2021-01-16 21:00:00 6.9 12 Oeste 23 Oeste 0 -- -- 39
2021-01-16 20:00:00 6.2 11 Oeste 19 Oeste 0 -- -- 42
2021-01-16 19:00:00 5.4 8 Oeste 23 Oeste 0 -- -- 50
2021-01-16 18:00:00 7 13 Oeste 27 Oeste 0 -- -- 44
2021-01-16 17:00:00 9 17 Oeste 31 Noroeste 0 -- -- 39
2021-01-16 16:00:00 8 6 Oeste 18 Oeste 0 -- -- 48
2021-01-16 15:00:00 8.6 10 Oeste 21 Noroeste 0 -- -- 40
2021-01-16 14:00:00 7.8 9 Oeste 15 Oeste 0 -- -- 43
2021-01-16 13:00:00 6.9 7 Oeste 14 Oeste 0 -- -- 49
2021-01-16 12:00:00 6.1 8 Oeste 14 Sudoeste 0 -- -- 50
2021-01-16 11:00:00 4.9 6 Sudoeste 13 Oeste 0 -- -- 60
2021-01-16 10:00:00 3.7 3 Sudoeste 19 Noroeste 0 -- -- 64
2021-01-16 09:00:00 1.9 10 Oeste 27 Noroeste 0 -- -- 75
2021-01-16 08:00:00 2.1 15 Noroeste 30 Oeste 0 -- -- 78
2021-01-16 07:00:00 2.3 20 Noroeste 39 Noroeste 0 -- -- 80
2021-01-16 06:00:00 2.2 13 Noroeste 24 Noroeste 0 -- -- 79
2021-01-16 05:00:00 2.6 12 Oeste 44 Noroeste 0 -- -- 79
2021-01-16 04:00:00 2.9 24 Noroeste 53 Oeste 0 -- -- 80
2021-01-16 03:00:00 2.8 23 Noroeste 41 Oeste 0 -- -- 79
2021-01-16 02:00:00 2.9 19 Oeste 41 Oeste 0 -- -- 78
2021-01-16 01:00:00 2.8 21 Noroeste 53 Oeste 0 -- -- 80
2021-01-16 00:00:00 3 29 Noroeste 58 Noroeste 0 -- -- 78
2021-01-15 23:00:00 3.2 32 Noroeste 54 Noroeste 0 -- -- 78
2021-01-15 22:00:00 3.2 27 Noroeste 48 Noroeste 0 -- -- 76
2021-01-15 21:00:00 3.3 23 Noroeste 46 Oeste 0 -- -- 76
2021-01-15 20:00:00 3.4 25 Noroeste 46 Oeste 0 -- -- 76
2021-01-15 19:00:00 3.7 27 Noroeste 59 Noroeste 0 -- -- 76
2021-01-15 18:00:00 4.1 26 Noroeste 41 Noroeste 0 -- -- 73
2021-01-15 17:00:00 5 20 Noroeste 38 Oeste 0 -- -- 71
2021-01-15 16:00:00 5 26 Noroeste 49 Oeste 0 -- -- 71
2021-01-15 15:00:00 4.9 30 Noroeste 50 Noroeste 0 -- -- 72
2021-01-15 14:00:00 4.8 28 Noroeste 53 Noroeste 0 -- -- 74
2021-01-15 13:00:00 3.8 24 Oeste 45 Oeste 0 -- -- 77
2021-01-15 12:00:00 3.6 14 Oeste 33 Oeste 0 -- -- 77
2021-01-15 11:00:00 3.4 21 Oeste 36 Sudoeste 0 -- -- 78
2021-01-15 10:00:00 3.5 19 Oeste 37 Oeste 0 -- -- 78
2021-01-15 09:00:00 2.9 15 Oeste 40 Oeste 0 -- -- 81
2021-01-15 08:00:00 3.4 19 Noroeste 40 Noroeste 0 -- -- 79
2021-01-15 07:00:00 3.5 16 Oeste 32 Oeste 0 -- -- 78
2021-01-15 06:00:00 3.3 12 Oeste 28 Oeste 0 -- -- 79
2021-01-15 05:00:00 3.6 24 Oeste 36 Oeste 0 -- -- 80
2021-01-15 04:00:00 4 14 Oeste 34 Noroeste 0 -- -- 81
2021-01-15 03:00:00 3.8 14 Noroeste 28 Oeste 0 -- -- 83
2021-01-15 02:00:00 4 13 Oeste 30 Oeste 0 -- -- 85
2021-01-15 01:00:00 4.1 13 Oeste 26 Oeste 0 -- -- 85
2021-01-15 00:00:00 4.3 17 Oeste 32 Oeste 0 -- -- 88
2021-01-14 23:00:00 4.6 20 Oeste 35 Oeste 0 -- -- 88
2021-01-14 22:00:00 4.1 13 Oeste 32 Oeste 0 -- -- 86
2021-01-14 21:00:00 4.1 15 Oeste 33 Oeste 0 -- -- 86
2021-01-14 20:00:00 4.4 18 Oeste 32 Oeste 0 -- -- 79
2021-01-14 19:00:00 4 18 Oeste 33 Oeste 0 -- -- 73
2021-01-14 18:00:00 3.4 21 Oeste 39 Noroeste 0 -- -- 63
2021-01-14 17:00:00 6.1 12 Oeste 29 Oeste 0 -- -- 53
2021-01-14 16:00:00 6.8 5 Oeste 17 Oeste 0 -- -- 48
2021-01-14 15:00:00 5.8 7 Noroeste 28 Noroeste 0 -- -- 54
2021-01-14 14:00:00 5.3 9 Noroeste 19 Noroeste 0 -- -- 55
2021-01-14 13:00:00 5.5 7 Oeste 21 Noroeste 0 -- -- 53
2021-01-14 12:00:00 3.9 3 Sur 6 Sur 0 -- -- 54
2021-01-14 11:00:00 0.5 5 Sur 9 Sur 0 -- -- 64
2021-01-14 10:00:00 -2.4 5 Sur 15 Oeste 0 -- -- 69
2021-01-14 09:00:00 -0.3 10 Oeste 24 Oeste 0 -- -- 69
2021-01-14 08:00:00 -1 8 Oeste 18 Noroeste 0 -- -- 72
2021-01-14 07:00:00 -2.3 8 Noroeste 16 Noroeste 0 -- -- 75
2021-01-14 06:00:00 -4.5 4 Sur 15 Oeste 0 -- -- 80
2021-01-14 05:00:00 -5.4 4 Oeste 11 Noroeste 0 -- -- 84
2021-01-14 04:00:00 -5.3 4 Sur 9 Sur 0 -- -- 84
2021-01-14 03:00:00 -3.7 5 Sur 10 Sur 0 -- -- 81
2021-01-14 02:00:00 -2.1 8 Sur 14 Sur 0 -- -- 80
2021-01-14 01:00:00 -3.9 7 Sur 10 Sur 0 -- -- 83
2021-01-14 00:00:00 -2.9 2 Sur 10 Sur 0 -- -- 81
2021-01-13 23:00:00 -1.1 9 Sur 14 Sur 0 -- -- 78
2021-01-13 22:00:00 -1.5 7 Sur 10 Sur 0 -- -- 82
2021-01-13 21:00:00 -2.1 4 Sur 8 Sur 0 -- -- 83
2021-01-13 20:00:00 0 5 Sur 13 Sur 0 -- -- 78
2021-01-13 19:00:00 0.9 8 Sur 12 Sur 0 -- -- 77
2021-01-13 18:00:00 3 3 Sur 8 Sur 0 -- -- 73
2021-01-13 17:00:00 5.5 2 Sudoeste 10 Noroeste 0 -- -- 67
2021-01-13 16:00:00 5.7 3 Oeste 13 Oeste 0 -- -- 66
2021-01-13 15:00:00 4.6 10 Oeste 21 Oeste 0 -- -- 71
2021-01-13 14:00:00 4 12 Oeste 21 Oeste 0 -- -- 74
2021-01-13 13:00:00 3.8 14 Sudoeste 22 Oeste 0 -- -- 75
2021-01-13 12:00:00 3.2 12 Oeste 23 Oeste 0 -- -- 77
2021-01-13 11:00:00 2.8 14 Oeste 26 Oeste 0 -- -- 79
2021-01-13 10:00:00 2.5 15 Oeste 24 Oeste 0 -- -- 80
2021-01-13 09:00:00 1.9 15 Oeste 24 Oeste 0 -- -- 77
2021-01-13 08:00:00 2.3 14 Oeste 29 Oeste 0 -- -- 79
2021-01-13 07:00:00 1.6 18 Oeste 30 Oeste 0 -- -- 79
2021-01-13 06:00:00 0.9 13 Oeste 23 Sudoeste 0 -- -- 80
2021-01-13 05:00:00 1.6 14 Oeste 30 Oeste 0 -- -- 79
2021-01-13 04:00:00 1.7 13 Oeste 21 Oeste 0 -- -- 81
2021-01-13 03:00:00 1.1 14 Oeste 31 Oeste 0 -- -- 78
2021-01-13 02:00:00 1.4 12 Oeste 24 Oeste 0 -- -- 79
2021-01-13 01:00:00 1.1 12 Noroeste 30 Oeste 0 -- -- 82
2021-01-13 00:00:00 0.9 17 Oeste 31 Oeste 0 -- -- 80
2021-01-12 23:00:00 0.6 12 Oeste 27 Oeste 0 -- -- 79
2021-01-12 22:00:00 -0.2 6 Oeste 28 Oeste 0 -- -- 76
2021-01-12 21:00:00 0.8 20 Oeste -- -- -- -- -- 72
2021-01-12 20:00:00 0.9 19 Oeste 32 Oeste -- -- -- 67
2021-01-12 19:00:00 0.1 11 Oeste 22 Oeste -- -- -- 72
2021-01-12 18:00:00 -1.6 4 Oeste 13 Oeste -- -- -- 71
2021-01-12 17:00:00 1.6 2 Sudoeste 6 Sur -- -- -- 64
2021-01-12 16:00:00 2.1 0 Calma 8 Sur -- -- -- 64
2021-01-12 15:00:00 2.6 2 Sudoeste 7 Sur -- -- -- 62
2021-01-12 14:00:00 3.2 4 Sur 10 Sudoeste -- -- -- 58
2021-01-12 13:00:00 2.2 5 Sudoeste 11 Oeste -- -- -- 61
2021-01-12 12:00:00 0.8 4 Sudoeste 19 Oeste 0.6 -- -- 64
2021-01-12 11:00:00 0.5 11 Oeste 25 Oeste 0 -- -- 70
2021-01-12 10:00:00 -3.3 5 Sudoeste 11 Sudoeste 0 -- -- 70
2021-01-12 09:00:00 -6.9 6 Sur 9 Sudoeste 0 -- -- 70
2021-01-12 08:00:00 -6 4 Sur 17 Sur 0 -- -- 66
2021-01-12 07:00:00 -5.3 11 Sudoeste 18 Sudoeste 0 -- -- 66
2021-01-12 06:00:00 -5.9 9 Sur 14 Sur 0 -- -- 68
2021-01-12 05:00:00 -5.6 6 Sudoeste 15 Sudoeste 0 -- -- 63
2021-01-12 04:00:00 -2.5 8 Oeste 17 Oeste 0 -- -- 58
2021-01-12 03:00:00 -2.3 9 Oeste 18 Oeste 0 -- -- 60
2021-01-12 02:00:00 -3.6 7 Oeste 16 Oeste 0 -- -- 63
2021-01-12 01:00:00 -3.1 9 Oeste 16 Oeste 0 -- -- 64
2021-01-12 00:00:00 -2.8 11 Oeste 21 Oeste 0 -- -- 67
2021-01-11 23:00:00 -2.5 12 Oeste 23 Oeste 0 -- -- 67
2021-01-11 22:00:00 -3 8 Oeste 20 Oeste 0 -- -- 71
2021-01-11 21:00:00 -2.7 10 Noroeste 22 Oeste 0 -- -- 73
2021-01-11 20:00:00 -2.9 8 Oeste 17 Oeste 0 -- -- 71
2021-01-11 19:00:00 -2.8 7 Oeste 16 Oeste 0 -- -- 69
2021-01-11 18:00:00 -1.6 10 Oeste 32 Noroeste 0.2 -- -- 69
2021-01-11 17:00:00 -0.1 18 Noroeste 31 Noroeste 0.8 -- -- 71
2021-01-11 16:00:00 0.4 17 Noroeste 31 Noroeste 2.2 -- -- 73
2021-01-11 15:00:00 0.4 17 Noroeste 35 Noroeste 3.4 -- -- 74
2021-01-11 14:00:00 0 18 Noroeste 35 Oeste 3 -- -- 75
2021-01-11 13:00:00 -0.5 18 Noroeste 36 Oeste 1 -- -- 74
2021-01-11 12:00:00 -0.9 18 Noroeste 37 Noroeste 0.4 -- -- 77
2021-01-11 11:00:00 -1.6 19 Noroeste 35 Noroeste 0 -- -- 78
2021-01-11 10:00:00 -2.5 17 Oeste 31 Oeste 0 -- -- 78
2021-01-11 09:00:00 -3.5 15 Oeste 27 Oeste 0 -- -- 81
2021-01-11 08:00:00 -3.6 17 Oeste 33 Oeste 0 -- -- 80
2021-01-11 07:00:00 -3.5 14 Oeste 29 Noroeste 0 -- -- 78
2021-01-11 06:00:00 -3.4 14 Oeste 28 Oeste 0 -- -- 78
2021-01-11 05:00:00 -4 10 Oeste 20 Oeste 0 -- -- 75
2021-01-11 04:00:00 -3.5 10 Oeste 26 Oeste 0 -- -- 80
2021-01-11 03:00:00 -3.6 12 Oeste 22 Oeste 0 -- -- 81
2021-01-11 02:00:00 -2.8 10 Oeste 23 Oeste 0 -- -- 83
2021-01-11 01:00:00 -2.5 11 Noroeste 32 Oeste 0 -- -- 84
2021-01-11 00:00:00 -2.3 13 Noroeste 30 Noroeste 0 -- -- 86
2021-01-10 23:00:00 -2.2 15 Noroeste 28 Noroeste 0 -- -- 87
2021-01-10 22:00:00 -1.9 14 Noroeste 29 Noroeste 0 -- -- 88
2021-01-10 21:00:00 -1.5 15 Noroeste 26 Noroeste 0 -- -- 89
2021-01-10 20:00:00 -1.6 14 Noroeste 24 Noroeste 0 -- -- 88
2021-01-10 19:00:00 -1.6 10 Noroeste 23 Oeste 0 -- -- 89
2021-01-10 18:00:00 -1.4 12 Noroeste 23 Noroeste 0.2 -- -- 89
2021-01-10 17:00:00 -1 9 Noroeste 19 Noroeste 0.2 -- -- 90
2021-01-10 16:00:00 -0.6 9 Noroeste 23 Noroeste 0.4 -- -- 88
2021-01-10 15:00:00 -0.2 11 Noroeste 20 Noroeste 0.6 -- -- 86
2021-01-10 14:00:00 -0.1 11 Noroeste 21 Oeste 1 -- -- 85
2021-01-10 13:00:00 0.3 14 Noroeste 22 Noroeste 1 -- -- 83
2021-01-10 12:00:00 -0.1 12 Noroeste 24 Noroeste 0.4 -- -- 87
2021-01-10 11:00:00 -0.2 6 Noroeste 14 Noroeste 0 -- -- 88
2021-01-10 10:00:00 -1.5 9 Noroeste 15 Noroeste 0 -- -- 95
2021-01-10 09:00:00 -1.8 10 Noroeste 15 Noroeste 0 -- -- 96
2021-01-10 08:00:00 -1.7 7 Noroeste 11 Noroeste 0 -- -- 96
2021-01-10 07:00:00 -2 6 Noroeste 9 Noroeste 0 -- -- 96
2021-01-10 06:00:00 -2.3 4 Noroeste 9 Noroeste 0 -- -- 97
2021-01-10 05:00:00 -2.4 6 Noroeste 10 Noroeste 0 -- -- 97
2021-01-10 04:00:00 -2.4 5 Oeste 9 Oeste 0 -- -- 97
2021-01-10 03:00:00 -2.2 3 Noroeste 7 Oeste 0 -- -- 97
2021-01-10 02:00:00 -2.3 4 Oeste 10 Noroeste 0 -- -- 97
2021-01-10 01:00:00 -2.4 7 Noroeste 11 Noroeste 0 -- -- 96
2021-01-10 00:00:00 -2.4 6 Oeste 10 Oeste 0 -- -- 95
2021-01-09 23:00:00 -2.5 4 Oeste 9 Oeste 0 -- -- 95
2021-01-09 22:00:00 -2.5 4 Noroeste 9 Noroeste 0.2 -- -- 95
2021-01-09 21:00:00 -2.7 4 Oeste 8 Oeste 0 -- -- 96
2021-01-09 20:00:00 -3 4 Noroeste 10 Noroeste 0 -- -- 96
2021-01-09 19:00:00 -3 5 Noroeste 14 Oeste 0 -- -- 95
2021-01-09 18:00:00 -3.1 5 Oeste 12 Noroeste 0 -- -- 94
2021-01-09 17:00:00 -2.7 4 Oeste 10 Oeste 0.4 -- -- 93
2021-01-09 16:00:00 -2.3 5 Noroeste 10 Noroeste 0.6 -- -- 92
2021-01-09 15:00:00 -1.9 6 Noroeste 12 Norte 1 -- -- 90
2021-01-09 14:00:00 -1.4 5 Noroeste 8 Noroeste 0.4 -- -- 90
2021-01-09 13:00:00 -1.5 5 Noroeste 8 Noroeste 0.2 -- -- 91
2021-01-09 12:00:00 -2 4 Noroeste 6 Oeste 0 -- -- 93
2021-01-09 11:00:00 -2.4 3 Oeste 5 Noroeste 0 -- -- 95
2021-01-09 10:00:00 -2.9 2 Noroeste 3 Noroeste 0 -- -- 96
2021-01-09 09:00:00 -3.7 0 Calma 2 Sudoeste 0 -- -- 96
2021-01-09 08:00:00 -3.7 0 Calma 3 Oeste 0 -- -- 96
2021-01-09 07:00:00 -3.8 0 Calma 3 Oeste 0 -- -- 96
2021-01-09 06:00:00 -3.8 0 Calma 3 Oeste 0 -- -- 96
2021-01-09 05:00:00 -3.8 0 Calma 0 Calma 0 -- -- 96
2021-01-09 04:00:00 -3.6 0 Calma 0 Calma 0 -- -- 96
2021-01-09 03:00:00 -3.6 0 Calma 5 Este 0 -- -- 96
2021-01-09 02:00:00 -3.5 3 Nordeste 6 Nordeste 0 -- -- 96
2021-01-09 01:00:00 -3.4 4 Norte 6 Norte 0 -- -- 96
2021-01-09 00:00:00 -3.3 0 Calma 3 Norte 0 -- -- 96
2021-01-08 23:00:00 -3.3 0 Calma 6 Norte 0 -- -- 96
2021-01-08 22:00:00 -3.2 2 Norte 4 Noroeste 0 -- -- 95
2021-01-08 21:00:00 -3.2 2 Norte 5 Noroeste 0 -- -- 95
2021-01-08 20:00:00 -3.2 3 Noroeste 8 Norte 0 -- -- 95
2021-01-08 19:00:00 -2.8 4 Noroeste 7 Noroeste 0 -- -- 93
2021-01-08 18:00:00 -2.4 4 Noroeste 5 Noroeste 0 -- -- 91
2021-01-08 17:00:00 -2.2 0 Calma 6 Oeste 0 -- -- 88
2021-01-08 16:00:00 -1.8 3 Noroeste 7 Norte 0 -- -- 86
2021-01-08 15:00:00 -1.4 5 Norte 11 Noroeste 0 -- -- 78
2021-01-08 14:00:00 -0.9 5 Norte 13 Noroeste 0 -- -- 73
2021-01-08 13:00:00 -0.7 4 Norte 10 Oeste 1.2 -- -- 73
2021-01-08 12:00:00 -1.9 2 Noroeste 7 Oeste 0 -- -- 80
2021-01-08 11:00:00 -2.7 3 Noroeste 6 Oeste 0 -- -- 83
2021-01-08 10:00:00 -4.5 2 Oeste 4 Oeste 0 -- -- 91
2021-01-08 09:00:00 -6.1 0 Calma 3 Sudoeste 0 -- -- 92
2021-01-08 08:00:00 -5.8 2 Sudoeste 4 Oeste 0 -- -- 89
2021-01-08 07:00:00 -4.2 3 Oeste 8 Oeste 0 -- -- 88
2021-01-08 06:00:00 -3.3 4 Oeste 9 Noroeste 0 -- -- 87
2021-01-08 05:00:00 -2.7 6 Oeste 11 Noroeste 0 -- -- 87
2021-01-08 04:00:00 -2.5 3 Noroeste 10 Noroeste 0 -- -- 86
2021-01-08 03:00:00 -2.2 6 Noroeste 12 Noroeste 0 -- -- 87
2021-01-08 02:00:00 -1.9 4 Noroeste 8 Noroeste 0 -- -- 87
2021-01-08 01:00:00 -2 0 Calma 5 Sur 0 -- -- 88
2021-01-08 00:00:00 -2.1 3 Sur 4 Sudoeste 0 -- -- 90
2021-01-07 23:00:00 -2.1 3 Sur 4 Sur 0 -- -- 93
2021-01-07 22:00:00 -1.8 2 Sudoeste 3 Sudoeste 0 -- -- 95
2021-01-07 21:00:00 -1.9 0 Calma 3 Sudoeste 0 -- -- 95
2021-01-07 20:00:00 -1.9 0 Calma 2 Sudeste 0 -- -- 94
2021-01-07 19:00:00 -2 0 Calma 6 Noroeste 0 -- -- 92
2021-01-07 18:00:00 -1.7 4 Noroeste 11 Norte 0 -- -- 90
2021-01-07 17:00:00 -0.8 6 Norte 10 Norte 0 -- -- 81
2021-01-07 16:00:00 -0.5 7 Noroeste 14 Norte 0 -- -- 78
2021-01-07 15:00:00 -0.2 8 Noroeste 15 Noroeste 0 -- -- 78
2021-01-07 14:00:00 -0.4 9 Noroeste 16 Noroeste 0 -- -- 78
2021-01-07 13:00:00 -0.7 3 Noroeste 6 Noroeste 0 -- -- 79
2021-01-07 12:00:00 -1.1 0 Calma 6 Noroeste 0 -- -- 80
2021-01-07 11:00:00 -1.7 2 Oeste 5 Oeste 0 -- -- 84
2021-01-07 10:00:00 -2.6 0 Calma 2 Sudoeste 0 -- -- 88
2021-01-07 09:00:00 -3.3 0 Calma 4 Oeste 0 -- -- 88
2021-01-07 08:00:00 -3.1 0 Calma 3 Sur 0 -- -- 86
2021-01-07 07:00:00 -2.9 0 Calma 6 Sur 0 -- -- 85
2021-01-07 06:00:00 -3 3 Sur 4 Sur 0 -- -- 86
2021-01-07 05:00:00 -2.7 0 Calma 4 Sur 0 -- -- 84
2021-01-07 04:00:00 -2 4 Sur 10 Sur 0 -- -- 82
2021-01-07 03:00:00 -2 5 Sur 8 Sur 0 -- -- 82
2021-01-07 02:00:00 -2.3 6 Sur 9 Sur 0 -- -- 83
2021-01-07 01:00:00 -2.9 6 Sur 8 Sur 0 -- -- 84
2021-01-07 00:00:00 -2.9 4 Sur 10 Sur 0 -- -- 83
2021-01-06 23:00:00 -2.7 6 Sur 10 Sur 0 -- -- 81
2021-01-06 22:00:00 -2.4 6 Sur 9 Sur 0 -- -- 80
2021-01-06 21:00:00 -2.8 4 Sur 8 Sur 0 -- -- 80
2021-01-06 20:00:00 -2.4 3 Sur 6 Sur 0 -- -- 75
2021-01-06 19:00:00 -1.1 2 Sur 4 Sur 0 -- -- 71
2021-01-06 18:00:00 1.4 3 Sur 10 Noroeste 0 -- -- 60
2021-01-06 17:00:00 4.1 6 Noroeste 13 Noroeste 0 -- -- 52
2021-01-06 16:00:00 4.9 7 Oeste 16 Oeste 0 -- -- 50
2021-01-06 15:00:00 4.5 10 Oeste 18 Noroeste 0 -- -- 52
2021-01-06 14:00:00 4.6 5 Noroeste 14 Noroeste 0 -- -- 56
2021-01-06 13:00:00 3.6 7 Oeste 14 Oeste 0 -- -- 58
2021-01-06 12:00:00 2.4 6 Noroeste 14 Oeste 0 -- -- 65
2021-01-06 11:00:00 1.1 3 Oeste 7 Oeste 0 -- -- 73
2021-01-06 10:00:00 -2.2 4 Sur 11 Sur 0 -- -- 85
2021-01-06 09:00:00 -4.7 5 Sur 13 Sur 0 -- -- 87
2021-01-06 08:00:00 -5.2 4 Sur 6 Sur 0 -- -- 88
2021-01-06 07:00:00 -4.4 5 Sur 10 Sur 0 -- -- 87
2021-01-06 06:00:00 -4.3 9 Sur 12 Sur 0 -- -- 87
2021-01-06 05:00:00 -4.1 8 Sur 12 Sur 0 -- -- 87
2021-01-06 04:00:00 -3.3 6 Sur 8 Sur 0 -- -- 87
2021-01-06 03:00:00 -2.8 4 Sur 10 Oeste 0 -- -- 86
2021-01-06 02:00:00 -2.4 5 Sudoeste 10 Sudoeste 0 -- -- 88
2021-01-06 01:00:00 -2.7 3 Oeste 7 Sur 0 -- -- 91
2021-01-06 00:00:00 -3.2 2 Sudoeste 5 Sur 0 -- -- 87
2021-01-05 23:00:00 -2.7 0 Calma 9 Sur 0 -- -- 83
2021-01-05 22:00:00 -2.3 3 Sur 8 Sur 0 -- -- 84
2021-01-05 21:00:00 -1.6 3 Sur 8 Sur 0 -- -- 83
2021-01-05 20:00:00 0 2 Oeste 7 Norte 0 -- -- 77
2021-01-05 19:00:00 0.1 2 Sudoeste 7 Oeste 0 -- -- 73
2021-01-05 18:00:00 1.1 3 Sudoeste 16 Oeste 0 -- -- 68
2021-01-05 17:00:00 3.2 10 Oeste 21 Oeste 0 -- -- 61
2021-01-05 16:00:00 3.6 11 Oeste 24 Oeste 0 -- -- 59
2021-01-05 15:00:00 4 14 Oeste 25 Oeste 0 -- -- 57
2021-01-05 14:00:00 3.7 15 Oeste 31 Noroeste 0 -- -- 60
2021-01-05 13:00:00 3.1 15 Oeste 26 Oeste 0 -- -- 63
2021-01-05 12:00:00 1.8 15 Oeste 27 Oeste 0 -- -- 67
2021-01-05 11:00:00 0.4 16 Oeste 26 Oeste 0 -- -- 72
2021-01-05 10:00:00 -0.1 14 Oeste 25 Oeste 0 -- -- 74
2021-01-05 09:00:00 -1.9 11 Oeste 21 Oeste 0 -- -- 79
2021-01-05 08:00:00 -2.2 7 Oeste 16 Oeste 0 -- -- 81
2021-01-05 07:00:00 -2.2 5 Oeste 23 Sudoeste 0 -- -- 81
2021-01-05 06:00:00 -2.5 9 Oeste 20 Oeste 0 -- -- 84
2021-01-05 05:00:00 -2.5 9 Oeste 14 Oeste 0 -- -- 83
2021-01-05 04:00:00 -1.9 7 Oeste 22 Sudoeste 0 -- -- 81
2021-01-05 03:00:00 -1.8 8 Oeste 20 Oeste 0 -- -- 82
2021-01-05 02:00:00 -1.7 10 Oeste 20 Oeste 0 -- -- 81
2021-01-05 01:00:00 -1.2 10 Oeste 18 Oeste 0 -- -- 80
2021-01-05 00:00:00 -1.1 5 Oeste 9 Sudoeste 0 -- -- 83
2021-01-04 23:00:00 0.1 4 Oeste 8 Oeste 0 -- -- 82
2021-01-04 22:00:00 0.1 5 Noroeste 17 Noroeste 0 -- -- 81
2021-01-04 21:00:00 0.9 9 Oeste 22 Oeste 0 -- -- 70
2021-01-04 20:00:00 0.9 8 Oeste 24 Oeste 0 -- -- 67
2021-01-04 19:00:00 1.3 15 Sudoeste 23 Sudoeste 0 -- -- 65
2021-01-04 18:00:00 1.4 10 Oeste 26 Oeste 0 -- -- 65
2021-01-04 17:00:00 2.9 15 Oeste 30 Oeste 0 -- -- 59
2021-01-04 16:00:00 3.7 20 Oeste 42 Oeste 0 -- -- 55
2021-01-04 15:00:00 3.6 22 Oeste 46 Oeste 0 -- -- 54
2021-01-04 14:00:00 3.3 25 Oeste 46 Oeste 0 -- -- 59
2021-01-04 13:00:00 2.9 28 Oeste 48 Sudoeste 0 -- -- 61
2021-01-04 12:00:00 2.4 22 Oeste 38 Sudoeste 0 -- -- 66
2021-01-04 11:00:00 1.5 23 Oeste 45 Oeste 0 -- -- 68
2021-01-04 10:00:00 0.4 9 Oeste 18 Oeste 0 -- -- 74
2021-01-04 09:00:00 -1.6 9 Oeste 23 Noroeste 0 -- -- 79
2021-01-04 08:00:00 -1.2 9 Oeste 23 Oeste 0 -- -- 82
2021-01-04 07:00:00 -0.6 14 Oeste 26 Sudoeste 0 -- -- 79
2021-01-04 06:00:00 -1.2 9 Oeste 17 Sudoeste 0 -- -- 82
2021-01-04 05:00:00 -1.2 6 Oeste 14 Oeste 0 -- -- 83
2021-01-04 04:00:00 -0.4 6 Oeste 19 Oeste 0 -- -- 83
2021-01-04 03:00:00 -0.5 8 Oeste 18 Oeste 0 -- -- 91
2021-01-04 02:00:00 -0.6 4 Sudoeste 26 Oeste 0 -- -- 91
2021-01-04 01:00:00 1.4 11 Oeste 22 Sudoeste 0 -- -- 75
2021-01-04 00:00:00 0.8 5 Norte 13 Sur 0 -- -- 71
2021-01-03 23:00:00 0.7 8 Sur 28 Sudoeste 0 -- -- 70
2021-01-03 22:00:00 2.3 23 Oeste 38 Oeste 0 -- -- 63
2021-01-03 21:00:00 1.5 21 Oeste 38 Oeste 0 -- -- 68
2021-01-03 20:00:00 1.5 19 Oeste 36 Oeste 0 -- -- 70
2021-01-03 19:00:00 1.8 22 Oeste 40 Oeste 0 -- -- 69
2021-01-03 18:00:00 2.2 24 Oeste 43 Oeste 0 -- -- 66
2021-01-03 17:00:00 3.7 24 Oeste 48 Oeste 0 -- -- 62
2021-01-03 16:00:00 4 30 Oeste 48 Oeste 0 -- -- 60
2021-01-03 15:00:00 4.2 26 Oeste 45 Oeste 0 -- -- 60
2021-01-03 14:00:00 4.2 28 Oeste 47 Oeste 0 -- -- 60
2021-01-03 13:00:00 3.8 20 Oeste 40 Oeste 0 -- -- 62
2021-01-03 12:00:00 2.8 19 Oeste 37 Oeste 0 -- -- 65
2021-01-03 11:00:00 2.2 22 Oeste 45 Noroeste 0 -- -- 66
2021-01-03 10:00:00 1.1 22 Oeste 40 Oeste 0 -- -- 68
2021-01-03 09:00:00 -0.8 15 Oeste 34 Oeste 0 -- -- 74
2021-01-03 08:00:00 -1.2 19 Oeste 40 Oeste 0 -- -- 74
2021-01-03 07:00:00 -1.2 24 Oeste 37 Oeste 0 -- -- 70
2021-01-03 06:00:00 -2 13 Oeste 23 Oeste 0 -- -- 71
2021-01-03 05:00:00 -2.6 9 Oeste 31 Oeste 0 -- -- 70
2021-01-03 04:00:00 -1.7 16 Noroeste 40 Noroeste 0 -- -- 66
2021-01-03 03:00:00 -0.8 22 Noroeste 44 Oeste 0 -- -- 61
2021-01-03 02:00:00 -0.8 22 Noroeste 50 Oeste 0 -- -- 64
2021-01-03 01:00:00 -0.5 26 Noroeste 48 Oeste 0 -- -- 65
2021-01-03 00:00:00 -0.6 22 Noroeste 50 Noroeste 0 -- -- 71
2021-01-02 23:00:00 -0.7 25 Noroeste 50 Noroeste 0 -- -- 75
2021-01-02 22:00:00 -0.4 26 Noroeste 57 Noroeste 0 -- -- 76
2021-01-02 21:00:00 -0.7 23 Noroeste 51 Noroeste 0 -- -- 76
2021-01-02 20:00:00 -0.6 28 Noroeste 52 Noroeste 0 -- -- 75
2021-01-02 19:00:00 -0.3 28 Noroeste 51 Noroeste 0 -- -- 73
2021-01-02 18:00:00 0 32 Noroeste 58 Noroeste 0 -- -- 71
2021-01-02 17:00:00 0.9 28 Noroeste 55 Noroeste 0 -- -- 66
2021-01-02 16:00:00 1.9 32 Noroeste 60 Noroeste 0 -- -- 60
2021-01-02 15:00:00 1.6 31 Noroeste 60 Noroeste 0 -- -- 62
2021-01-02 14:00:00 2.1 36 Noroeste 59 Noroeste 0 -- -- 59